sensor_id;sensor_type;location;lat;lon;timestamp;P1;durP1;ratioP1;P2;durP2;ratioP2
25319;SDS011;13256;49.012;8.610;2023-07-20T00:00:25;3.80;;;1.83;;
25319;SDS011;13256;49.012;8.610;2023-07-20T00:03:09;3.05;;;1.48;;
25319;SDS011;13256;49.012;8.610;2023-07-20T00:05:40;5.35;;;1.58;;
25319;SDS011;13256;49.012;8.610;2023-07-20T00:08:10;3.55;;;1.50;;
25319;SDS011;13256;49.012;8.610;2023-07-20T00:10:39;5.30;;;1.40;;
25319;SDS011;13256;49.012;8.610;2023-07-20T00:13:06;2.25;;;1.58;;
25319;SDS011;13256;49.012;8.610;2023-07-20T00:15:36;2.88;;;1.25;;
25319;SDS011;13256;49.012;8.610;2023-07-20T00:18:04;3.17;;;1.35;;
25319;SDS011;13256;49.012;8.610;2023-07-20T00:20:31;3.00;;;1.30;;
25319;SDS011;13256;49.012;8.610;2023-07-20T00:22:58;2.35;;;1.30;;
25319;SDS011;13256;49.012;8.610;2023-07-20T00:25:25;3.85;;;1.35;;
25319;SDS011;13256;49.012;8.610;2023-07-20T00:27:52;2.63;;;1.40;;
25319;SDS011;13256;49.012;8.610;2023-07-20T00:30:21;2.53;;;1.38;;
25319;SDS011;13256;49.012;8.610;2023-07-20T00:32:48;2.67;;;1.33;;
25319;SDS011;13256;49.012;8.610;2023-07-20T00:35:15;4.63;;;1.20;;
25319;SDS011;13256;49.012;8.610;2023-07-20T00:37:45;2.13;;;1.30;;
25319;SDS011;13256;49.012;8.610;2023-07-20T00:40:15;2.05;;;1.33;;
25319;SDS011;13256;49.012;8.610;2023-07-20T00:42:44;1.38;;;1.05;;
25319;SDS011;13256;49.012;8.610;2023-07-20T00:45:11;4.13;;;1.50;;
25319;SDS011;13256;49.012;8.610;2023-07-20T00:47:42;2.30;;;1.08;;
25319;SDS011;13256;49.012;8.610;2023-07-20T00:50:09;4.18;;;1.50;;
25319;SDS011;13256;49.012;8.610;2023-07-20T00:52:37;3.15;;;1.38;;
25319;SDS011;13256;49.012;8.610;2023-07-20T00:55:06;3.70;;;1.20;;
25319;SDS011;13256;49.012;8.610;2023-07-20T00:57:35;1.52;;;1.38;;
25319;SDS011;13256;49.012;8.610;2023-07-20T01:00:06;6.22;;;1.40;;
25319;SDS011;13256;49.012;8.610;2023-07-20T01:02:33;5.03;;;1.50;;
25319;SDS011;13256;49.012;8.610;2023-07-20T01:05:03;5.85;;;1.60;;
25319;SDS011;13256;49.012;8.610;2023-07-20T01:07:42;3.25;;;1.50;;
25319;SDS011;13256;49.012;8.610;2023-07-20T01:13:01;3.67;;;1.40;;
25319;SDS011;13256;49.012;8.610;2023-07-20T01:15:30;6.63;;;1.02;;
25319;SDS011;13256;49.012;8.610;2023-07-20T01:18:02;1.92;;;1.10;;
25319;SDS011;13256;49.012;8.610;2023-07-20T01:20:32;2.38;;;1.23;;
25319;SDS011;13256;49.012;8.610;2023-07-20T01:31:32;4.20;;;1.20;;
25319;SDS011;13256;49.012;8.610;2023-07-20T01:34:02;6.75;;;1.25;;
25319;SDS011;13256;49.012;8.610;2023-07-20T01:36:34;3.42;;;1.40;;
25319;SDS011;13256;49.012;8.610;2023-07-20T01:39:28;2.00;;;1.30;;
25319;SDS011;13256;49.012;8.610;2023-07-20T01:41:56;3.25;;;1.25;;
25319;SDS011;13256;49.012;8.610;2023-07-20T01:44:24;2.70;;;1.48;;
25319;SDS011;13256;49.012;8.610;2023-07-20T01:47:02;2.75;;;1.30;;
25319;SDS011;13256;49.012;8.610;2023-07-20T01:49:30;2.67;;;1.40;;
25319;SDS011;13256;49.012;8.610;2023-07-20T01:51:59;2.58;;;1.48;;
25319;SDS011;13256;49.012;8.610;2023-07-20T01:54:29;3.22;;;1.42;;
25319;SDS011;13256;49.012;8.610;2023-07-20T01:56:56;2.30;;;1.30;;
25319;SDS011;13256;49.012;8.610;2023-07-20T01:59:24;2.88;;;1.50;;
25319;SDS011;13256;49.012;8.610;2023-07-20T02:01:53;4.53;;;1.50;;
25319;SDS011;13256;49.012;8.610;2023-07-20T02:04:23;4.05;;;1.52;;
25319;SDS011;13256;49.012;8.610;2023-07-20T02:06:53;2.30;;;1.55;;
25319;SDS011;13256;49.012;8.610;2023-07-20T02:09:20;2.58;;;1.35;;
25319;SDS011;13256;49.012;8.610;2023-07-20T02:11:48;2.85;;;1.33;;
25319;SDS011;13256;49.012;8.610;2023-07-20T02:14:20;2.90;;;1.60;;
25319;SDS011;13256;49.012;8.610;2023-07-20T02:16:48;2.35;;;1.33;;
25319;SDS011;13256;49.012;8.610;2023-07-20T02:19:20;6.95;;;1.40;;
25319;SDS011;13256;49.012;8.610;2023-07-20T02:21:47;3.40;;;1.73;;
25319;SDS011;13256;49.012;8.610;2023-07-20T02:24:16;5.15;;;1.42;;
25319;SDS011;13256;49.012;8.610;2023-07-20T02:26:44;3.67;;;1.52;;
25319;SDS011;13256;49.012;8.610;2023-07-20T02:29:13;2.95;;;1.63;;
25319;SDS011;13256;49.012;8.610;2023-07-20T02:31:40;3.78;;;2.08;;
25319;SDS011;13256;49.012;8.610;2023-07-20T02:34:09;5.50;;;1.42;;
25319;SDS011;13256;49.012;8.610;2023-07-20T02:36:41;2.20;;;1.67;;
25319;SDS011;13256;49.012;8.610;2023-07-20T02:39:08;5.75;;;1.50;;
25319;SDS011;13256;49.012;8.610;2023-07-20T02:41:38;3.67;;;1.67;;
25319;SDS011;13256;49.012;8.610;2023-07-20T02:44:06;2.63;;;1.55;;
25319;SDS011;13256;49.012;8.610;2023-07-20T02:46:59;5.95;;;1.38;;
25319;SDS011;13256;49.012;8.610;2023-07-20T02:49:28;5.80;;;1.85;;
25319;SDS011;13256;49.012;8.610;2023-07-20T02:51:57;3.63;;;1.85;;
25319;SDS011;13256;49.012;8.610;2023-07-20T02:54:24;3.33;;;1.40;;
25319;SDS011;13256;49.012;8.610;2023-07-20T02:56:52;2.60;;;1.40;;
25319;SDS011;13256;49.012;8.610;2023-07-20T02:59:19;5.07;;;1.67;;
25319;SDS011;13256;49.012;8.610;2023-07-20T03:01:48;2.92;;;1.50;;
25319;SDS011;13256;49.012;8.610;2023-07-20T03:04:20;3.50;;;1.55;;
25319;SDS011;13256;49.012;8.610;2023-07-20T03:06:48;4.78;;;1.75;;
25319;SDS011;13256;49.012;8.610;2023-07-20T03:09:14;4.45;;;1.75;;
25319;SDS011;13256;49.012;8.610;2023-07-20T03:11:41;4.15;;;1.70;;
25319;SDS011;13256;49.012;8.610;2023-07-20T03:14:11;3.30;;;2.13;;
25319;SDS011;13256;49.012;8.610;2023-07-20T03:16:39;4.57;;;1.40;;
25319;SDS011;13256;49.012;8.610;2023-07-20T03:19:12;3.17;;;1.67;;
25319;SDS011;13256;49.012;8.610;2023-07-20T03:21:38;2.67;;;1.60;;
25319;SDS011;13256;49.012;8.610;2023-07-20T03:24:08;2.00;;;1.60;;
25319;SDS011;13256;49.012;8.610;2023-07-20T03:26:38;4.03;;;1.88;;
25319;SDS011;13256;49.012;8.610;2023-07-20T03:29:06;4.00;;;1.40;;
25319;SDS011;13256;49.012;8.610;2023-07-20T03:31:38;2.42;;;1.40;;
25319;SDS011;13256;49.012;8.610;2023-07-20T03:34:05;3.35;;;1.73;;
25319;SDS011;13256;49.012;8.610;2023-07-20T03:36:37;3.17;;;1.75;;
25319;SDS011;13256;49.012;8.610;2023-07-20T03:39:03;2.85;;;1.50;;
25319;SDS011;13256;49.012;8.610;2023-07-20T03:41:33;11.32;;;2.28;;
25319;SDS011;13256;49.012;8.610;2023-07-20T03:44:00;2.75;;;1.75;;
25319;SDS011;13256;49.012;8.610;2023-07-20T03:46:30;5.05;;;1.80;;
25319;SDS011;13256;49.012;8.610;2023-07-20T03:48:57;4.05;;;1.88;;
25319;SDS011;13256;49.012;8.610;2023-07-20T03:51:49;2.83;;;1.75;;
25319;SDS011;13256;49.012;8.610;2023-07-20T03:54:19;4.05;;;1.60;;
25319;SDS011;13256;49.012;8.610;2023-07-20T03:56:48;3.90;;;1.58;;
25319;SDS011;13256;49.012;8.610;2023-07-20T03:59:18;2.65;;;1.70;;
25319;SDS011;13256;49.012;8.610;2023-07-20T04:01:49;2.85;;;1.70;;
25319;SDS011;13256;49.012;8.610;2023-07-20T04:24:38;3.00;;;1.70;;
25319;SDS011;13256;49.012;8.610;2023-07-20T04:27:09;7.72;;;2.00;;
25319;SDS011;13256;49.012;8.610;2023-07-20T04:29:36;2.78;;;2.00;;
25319;SDS011;13256;49.012;8.610;2023-07-20T04:32:03;2.75;;;1.90;;
25319;SDS011;13256;49.012;8.610;2023-07-20T04:34:39;2.45;;;1.80;;
25319;SDS011;13256;49.012;8.610;2023-07-20T04:37:09;4.75;;;2.05;;
25319;SDS011;13256;49.012;8.610;2023-07-20T04:39:48;3.63;;;1.73;;
25319;SDS011;13256;49.012;8.610;2023-07-20T04:42:20;4.80;;;2.10;;
25319;SDS011;13256;49.012;8.610;2023-07-20T04:44:50;5.43;;;2.33;;
25319;SDS011;13256;49.012;8.610;2023-07-20T04:47:20;5.32;;;1.95;;
25319;SDS011;13256;49.012;8.610;2023-07-20T04:49:51;2.58;;;1.95;;
25319;SDS011;13256;49.012;8.610;2023-07-20T04:52:22;3.45;;;1.70;;
25319;SDS011;13256;49.012;8.610;2023-07-20T04:55:03;2.53;;;1.45;;
25319;SDS011;13256;49.012;8.610;2023-07-20T04:57:31;2.83;;;1.85;;
25319;SDS011;13256;49.012;8.610;2023-07-20T05:00:01;2.63;;;1.65;;
25319;SDS011;13256;49.012;8.610;2023-07-20T05:02:33;3.90;;;2.03;;
25319;SDS011;13256;49.012;8.610;2023-07-20T05:05:03;3.47;;;2.00;;
25319;SDS011;13256;49.012;8.610;2023-07-20T05:07:42;5.05;;;2.00;;
25319;SDS011;13256;49.012;8.610;2023-07-20T05:10:12;6.97;;;2.00;;
25319;SDS011;13256;49.012;8.610;2023-07-20T05:12:44;3.45;;;2.00;;
25319;SDS011;13256;49.012;8.610;2023-07-20T05:15:14;5.03;;;1.70;;
25319;SDS011;13256;49.012;8.610;2023-07-20T05:17:44;3.22;;;1.70;;
25319;SDS011;13256;49.012;8.610;2023-07-20T05:20:19;5.63;;;2.15;;
25319;SDS011;13256;49.012;8.610;2023-07-20T05:22:47;5.30;;;2.42;;
25319;SDS011;13256;49.012;8.610;2023-07-20T05:25:19;7.07;;;1.95;;
25319;SDS011;13256;49.012;8.610;2023-07-20T05:27:48;3.28;;;1.60;;
25319;SDS011;13256;49.012;8.610;2023-07-20T05:30:23;2.92;;;1.85;;
25319;SDS011;13256;49.012;8.610;2023-07-20T05:32:51;4.95;;;1.85;;
25319;SDS011;13256;49.012;8.610;2023-07-20T05:35:23;3.88;;;1.77;;
25319;SDS011;13256;49.012;8.610;2023-07-20T05:37:51;3.92;;;2.20;;
25319;SDS011;13256;49.012;8.610;2023-07-20T05:40:19;4.55;;;1.88;;
25319;SDS011;13256;49.012;8.610;2023-07-20T05:42:47;6.97;;;1.85;;
25319;SDS011;13256;49.012;8.610;2023-07-20T05:45:18;2.15;;;1.58;;
25319;SDS011;13256;49.012;8.610;2023-07-20T05:47:48;4.28;;;2.22;;
25319;SDS011;13256;49.012;8.610;2023-07-20T05:50:18;3.65;;;1.83;;
25319;SDS011;13256;49.012;8.610;2023-07-20T05:52:53;4.82;;;1.92;;
25319;SDS011;13256;49.012;8.610;2023-07-20T05:55:20;4.10;;;1.90;;
25319;SDS011;13256;49.012;8.610;2023-07-20T05:57:48;3.13;;;2.00;;
25319;SDS011;13256;49.012;8.610;2023-07-20T06:00:16;5.75;;;1.90;;
25319;SDS011;13256;49.012;8.610;2023-07-20T06:02:45;5.55;;;1.63;;
25319;SDS011;13256;49.012;8.610;2023-07-20T06:05:21;3.42;;;1.80;;
25319;SDS011;13256;49.012;8.610;2023-07-20T06:07:52;2.70;;;1.58;;
25319;SDS011;13256;49.012;8.610;2023-07-20T06:10:21;3.65;;;2.10;;
25319;SDS011;13256;49.012;8.610;2023-07-20T06:12:50;1.77;;;1.50;;
25319;SDS011;13256;49.012;8.610;2023-07-20T06:15:25;3.58;;;1.55;;
25319;SDS011;13256;49.012;8.610;2023-07-20T06:17:56;3.22;;;1.60;;
25319;SDS011;13256;49.012;8.610;2023-07-20T06:20:33;5.40;;;1.75;;
25319;SDS011;13256;49.012;8.610;2023-07-20T06:23:04;3.60;;;1.92;;
25319;SDS011;13256;49.012;8.610;2023-07-20T06:25:32;3.35;;;1.52;;
25319;SDS011;13256;49.012;8.610;2023-07-20T06:28:01;3.35;;;1.60;;
25319;SDS011;13256;49.012;8.610;2023-07-20T06:30:33;3.08;;;1.50;;
25319;SDS011;13256;49.012;8.610;2023-07-20T06:33:14;6.15;;;1.77;;
25319;SDS011;13256;49.012;8.610;2023-07-20T06:35:48;3.35;;;1.50;;
25319;SDS011;13256;49.012;8.610;2023-07-20T06:38:19;6.22;;;1.95;;
25319;SDS011;13256;49.012;8.610;2023-07-20T06:40:54;3.88;;;2.08;;
25319;SDS011;13256;49.012;8.610;2023-07-20T06:43:21;3.42;;;1.30;;
25319;SDS011;13256;49.012;8.610;2023-07-20T06:45:51;9.50;;;1.80;;
25319;SDS011;13256;49.012;8.610;2023-07-20T06:48:24;3.35;;;1.55;;
25319;SDS011;13256;49.012;8.610;2023-07-20T06:50:55;2.90;;;2.10;;
25319;SDS011;13256;49.012;8.610;2023-07-20T06:53:24;3.85;;;1.60;;
25319;SDS011;13256;49.012;8.610;2023-07-20T06:55:52;5.90;;;1.90;;
25319;SDS011;13256;49.012;8.610;2023-07-20T07:01:25;3.50;;;1.70;;
25319;SDS011;13256;49.012;8.610;2023-07-20T07:03:53;2.90;;;1.60;;
25319;SDS011;13256;49.012;8.610;2023-07-20T07:06:22;8.20;;;2.08;;
25319;SDS011;13256;49.012;8.610;2023-07-20T07:08:51;5.78;;;1.85;;
25319;SDS011;13256;49.012;8.610;2023-07-20T07:11:21;4.25;;;2.03;;
25319;SDS011;13256;49.012;8.610;2023-07-20T07:13:53;5.88;;;1.65;;
25319;SDS011;13256;49.012;8.610;2023-07-20T07:16:50;3.08;;;1.88;;
25319;SDS011;13256;49.012;8.610;2023-07-20T07:19:20;5.97;;;1.88;;
25319;SDS011;13256;49.012;8.610;2023-07-20T07:21:50;2.50;;;1.65;;
25319;SDS011;13256;49.012;8.610;2023-07-20T07:27:55;2.80;;;1.80;;
25319;SDS011;13256;49.012;8.610;2023-07-20T07:30:25;4.03;;;1.95;;
25319;SDS011;13256;49.012;8.610;2023-07-20T07:32:55;6.40;;;1.92;;
25319;SDS011;13256;49.012;8.610;2023-07-20T07:35:32;2.38;;;1.58;;
25319;SDS011;13256;49.012;8.610;2023-07-20T07:38:04;3.80;;;1.83;;
25319;SDS011;13256;49.012;8.610;2023-07-20T07:43:50;3.88;;;1.60;;
25319;SDS011;13256;49.012;8.610;2023-07-20T07:46:21;4.45;;;1.88;;
25319;SDS011;13256;49.012;8.610;2023-07-20T07:48:49;5.38;;;2.15;;
25319;SDS011;13256;49.012;8.610;2023-07-20T07:51:17;4.63;;;1.73;;
25319;SDS011;13256;49.012;8.610;2023-07-20T07:53:51;4.07;;;1.63;;
25319;SDS011;13256;49.012;8.610;2023-07-20T07:59:14;4.43;;;1.90;;
25319;SDS011;13256;49.012;8.610;2023-07-20T08:01:46;3.95;;;1.77;;
25319;SDS011;13256;49.012;8.610;2023-07-20T08:04:14;5.50;;;2.10;;
25319;SDS011;13256;49.012;8.610;2023-07-20T08:06:46;2.78;;;1.67;;
25319;SDS011;13256;49.012;8.610;2023-07-20T08:09:17;2.90;;;1.48;;
25319;SDS011;13256;49.012;8.610;2023-07-20T08:11:50;3.97;;;1.67;;
25319;SDS011;13256;49.012;8.610;2023-07-20T08:14:18;3.42;;;1.45;;
25319;SDS011;13256;49.012;8.610;2023-07-20T08:16:48;6.57;;;1.40;;
25319;SDS011;13256;49.012;8.610;2023-07-20T08:19:20;4.93;;;1.30;;
25319;SDS011;13256;49.012;8.610;2023-07-20T08:24:48;3.53;;;1.50;;
25319;SDS011;13256;49.012;8.610;2023-07-20T08:27:16;3.50;;;1.38;;
25319;SDS011;13256;49.012;8.610;2023-07-20T08:29:45;4.07;;;1.80;;
25319;SDS011;13256;49.012;8.610;2023-07-20T08:32:13;6.30;;;1.67;;
25319;SDS011;13256;49.012;8.610;2023-07-20T08:34:42;4.45;;;1.40;;
25319;SDS011;13256;49.012;8.610;2023-07-20T08:37:13;3.60;;;1.35;;
25319;SDS011;13256;49.012;8.610;2023-07-20T08:39:40;3.47;;;1.10;;
25319;SDS011;13256;49.012;8.610;2023-07-20T08:42:07;2.67;;;1.10;;
25319;SDS011;13256;49.012;8.610;2023-07-20T08:44:40;4.85;;;1.60;;
25319;SDS011;13256;49.012;8.610;2023-07-20T08:47:13;3.22;;;1.48;;
25319;SDS011;13256;49.012;8.610;2023-07-20T08:49:48;4.80;;;1.52;;
25319;SDS011;13256;49.012;8.610;2023-07-20T08:52:21;4.13;;;1.33;;
25319;SDS011;13256;49.012;8.610;2023-07-20T08:54:51;2.78;;;1.52;;
25319;SDS011;13256;49.012;8.610;2023-07-20T08:57:24;3.60;;;1.58;;
25319;SDS011;13256;49.012;8.610;2023-07-20T08:59:52;2.90;;;1.38;;
25319;SDS011;13256;49.012;8.610;2023-07-20T09:04:53;2.92;;;1.40;;
25319;SDS011;13256;49.012;8.610;2023-07-20T09:07:26;4.35;;;1.33;;
25319;SDS011;13256;49.012;8.610;2023-07-20T09:09:57;1.88;;;1.38;;
25319;SDS011;13256;49.012;8.610;2023-07-20T09:15:58;2.30;;;1.33;;
25319;SDS011;13256;49.012;8.610;2023-07-20T09:18:33;1.48;;;1.10;;
25319;SDS011;13256;49.012;8.610;2023-07-20T09:21:09;3.13;;;1.02;;
25319;SDS011;13256;49.012;8.610;2023-07-20T09:29:51;1.85;;;1.35;;
25319;SDS011;13256;49.012;8.610;2023-07-20T09:35:21;2.38;;;1.48;;
25319;SDS011;13256;49.012;8.610;2023-07-20T09:45:06;1.52;;;1.20;;
25319;SDS011;13256;49.012;8.610;2023-07-20T09:50:24;3.28;;;1.48;;
25319;SDS011;13256;49.012;8.610;2023-07-20T09:53:06;4.10;;;1.20;;
25319;SDS011;13256;49.012;8.610;2023-07-20T09:55:40;2.53;;;1.42;;
25319;SDS011;13256;49.012;8.610;2023-07-20T10:04:13;1.92;;;1.30;;
25319;SDS011;13256;49.012;8.610;2023-07-20T10:06:47;1.73;;;0.90;;
25319;SDS011;13256;49.012;8.610;2023-07-20T10:12:14;3.85;;;1.38;;
25319;SDS011;13256;49.012;8.610;2023-07-20T10:28:05;2.25;;;1.08;;
25319;SDS011;13256;49.012;8.610;2023-07-20T10:45:54;1.98;;;1.10;;
25319;SDS011;13256;49.012;8.610;2023-07-20T10:48:22;1.25;;;1.00;;
25319;SDS011;13256;49.012;8.610;2023-07-20T10:57:22;6.82;;;0.90;;
25319;SDS011;13256;49.012;8.610;2023-07-20T11:00:34;2.30;;;0.98;;
25319;SDS011;13256;49.012;8.610;2023-07-20T11:49:16;1.45;;;0.98;;
25319;SDS011;13256;49.012;8.610;2023-07-20T11:55:02;3.20;;;1.20;;
25319;SDS011;13256;49.012;8.610;2023-07-20T11:57:30;3.50;;;1.30;;
25319;SDS011;13256;49.012;8.610;2023-07-20T12:00:05;2.88;;;1.25;;
25319;SDS011;13256;49.012;8.610;2023-07-20T12:02:37;4.85;;;1.10;;
25319;SDS011;13256;49.012;8.610;2023-07-20T12:07:45;3.42;;;0.93;;
25319;SDS011;13256;49.012;8.610;2023-07-20T12:11:07;2.60;;;1.10;;
25319;SDS011;13256;49.012;8.610;2023-07-20T12:13:43;3.33;;;1.00;;
25319;SDS011;13256;49.012;8.610;2023-07-20T12:16:16;2.90;;;1.10;;
25319;SDS011;13256;49.012;8.610;2023-07-20T12:22:24;2.35;;;1.10;;
25319;SDS011;13256;49.012;8.610;2023-07-20T12:24:52;1.63;;;1.13;;
25319;SDS011;13256;49.012;8.610;2023-07-20T12:27:20;4.35;;;1.10;;
25319;SDS011;13256;49.012;8.610;2023-07-20T12:29:47;2.28;;;0.93;;
25319;SDS011;13256;49.012;8.610;2023-07-20T12:32:14;1.75;;;1.00;;
25319;SDS011;13256;49.012;8.610;2023-07-20T12:34:44;1.92;;;0.90;;
25319;SDS011;13256;49.012;8.610;2023-07-20T12:37:11;1.00;;;0.90;;
25319;SDS011;13256;49.012;8.610;2023-07-20T12:39:38;6.90;;;1.00;;
25319;SDS011;13256;49.012;8.610;2023-07-20T12:42:07;1.23;;;0.93;;
25319;SDS011;13256;49.012;8.610;2023-07-20T12:44:34;1.40;;;1.23;;
25319;SDS011;13256;49.012;8.610;2023-07-20T12:47:02;3.17;;;0.90;;
25319;SDS011;13256;49.012;8.610;2023-07-20T12:49:32;2.95;;;0.85;;
25319;SDS011;13256;49.012;8.610;2023-07-20T12:58:22;2.38;;;0.73;;
25319;SDS011;13256;49.012;8.610;2023-07-20T13:00:50;3.22;;;1.15;;
25319;SDS011;13256;49.012;8.610;2023-07-20T13:03:17;2.83;;;1.17;;
25319;SDS011;13256;49.012;8.610;2023-07-20T13:05:51;1.67;;;0.90;;
25319;SDS011;13256;49.012;8.610;2023-07-20T13:08:46;0.98;;;0.80;;
25319;SDS011;13256;49.012;8.610;2023-07-20T13:11:17;2.83;;;0.90;;
25319;SDS011;13256;49.012;8.610;2023-07-20T13:13:46;2.60;;;1.15;;
25319;SDS011;13256;49.012;8.610;2023-07-20T13:16:13;3.70;;;1.10;;
25319;SDS011;13256;49.012;8.610;2023-07-20T13:18:41;5.47;;;1.10;;
25319;SDS011;13256;49.012;8.610;2023-07-20T13:21:08;6.95;;;1.10;;
25319;SDS011;13256;49.012;8.610;2023-07-20T13:23:41;2.35;;;0.80;;
25319;SDS011;13256;49.012;8.610;2023-07-20T13:26:08;0.70;;;0.70;;
25319;SDS011;13256;49.012;8.610;2023-07-20T13:28:35;2.75;;;0.90;;
25319;SDS011;13256;49.012;8.610;2023-07-20T13:31:06;1.00;;;0.80;;
25319;SDS011;13256;49.012;8.610;2023-07-20T13:33:37;3.20;;;0.77;;
25319;SDS011;13256;49.012;8.610;2023-07-20T13:36:11;2.42;;;0.90;;
25319;SDS011;13256;49.012;8.610;2023-07-20T13:38:40;2.97;;;0.93;;
25319;SDS011;13256;49.012;8.610;2023-07-20T13:41:07;2.05;;;0.80;;
25319;SDS011;13256;49.012;8.610;2023-07-20T13:43:36;2.45;;;0.80;;
25319;SDS011;13256;49.012;8.610;2023-07-20T13:46:17;2.67;;;1.17;;
25319;SDS011;13256;49.012;8.610;2023-07-20T13:49:07;2.78;;;0.90;;
25319;SDS011;13256;49.012;8.610;2023-07-20T13:51:39;0.82;;;0.70;;
25319;SDS011;13256;49.012;8.610;2023-07-20T13:54:07;1.38;;;0.75;;
25319;SDS011;13256;49.012;8.610;2023-07-20T13:56:50;1.70;;;0.90;;
25319;SDS011;13256;49.012;8.610;2023-07-20T14:02:25;1.58;;;0.93;;
25319;SDS011;13256;49.012;8.610;2023-07-20T14:07:54;0.98;;;0.80;;
25319;SDS011;13256;49.012;8.610;2023-07-20T14:13:53;4.65;;;0.90;;
25319;SDS011;13256;49.012;8.610;2023-07-20T14:16:24;6.20;;;1.10;;
25319;SDS011;13256;49.012;8.610;2023-07-20T14:18:54;3.72;;;0.70;;
25319;SDS011;13256;49.012;8.610;2023-07-20T14:21:26;2.72;;;1.17;;
25319;SDS011;13256;49.012;8.610;2023-07-20T14:24:19;2.05;;;1.10;;
25319;SDS011;13256;49.012;8.610;2023-07-20T14:26:46;4.25;;;0.90;;
25319;SDS011;13256;49.012;8.610;2023-07-20T14:31:45;1.35;;;0.80;;
25319;SDS011;13256;49.012;8.610;2023-07-20T14:34:19;1.15;;;0.60;;
25319;SDS011;13256;49.012;8.610;2023-07-20T14:36:48;6.32;;;0.80;;
25319;SDS011;13256;49.012;8.610;2023-07-20T14:39:16;1.50;;;0.90;;
25319;SDS011;13256;49.012;8.610;2023-07-20T14:41:45;1.67;;;0.82;;
25319;SDS011;13256;49.012;8.610;2023-07-20T14:44:14;8.32;;;0.90;;
25319;SDS011;13256;49.012;8.610;2023-07-20T14:46:41;1.02;;;0.80;;
25319;SDS011;13256;49.012;8.610;2023-07-20T14:49:13;9.73;;;1.00;;
25319;SDS011;13256;49.012;8.610;2023-07-20T14:51:40;0.90;;;0.60;;
25319;SDS011;13256;49.012;8.610;2023-07-20T14:54:13;3.25;;;0.90;;
25319;SDS011;13256;49.012;8.610;2023-07-20T14:56:51;0.80;;;0.60;;
25319;SDS011;13256;49.012;8.610;2023-07-20T14:59:19;1.30;;;0.80;;
25319;SDS011;13256;49.012;8.610;2023-07-20T15:01:51;1.52;;;0.70;;
25319;SDS011;13256;49.012;8.610;2023-07-20T15:04:19;1.97;;;0.80;;
25319;SDS011;13256;49.012;8.610;2023-07-20T15:06:46;1.02;;;0.80;;
25319;SDS011;13256;49.012;8.610;2023-07-20T15:09:14;0.60;;;0.60;;
25319;SDS011;13256;49.012;8.610;2023-07-20T15:11:40;1.88;;;0.90;;
25319;SDS011;13256;49.012;8.610;2023-07-20T15:14:08;2.05;;;0.77;;
25319;SDS011;13256;49.012;8.610;2023-07-20T15:16:37;4.40;;;0.80;;
25319;SDS011;13256;49.012;8.610;2023-07-20T15:19:04;2.25;;;0.73;;
25319;SDS011;13256;49.012;8.610;2023-07-20T15:21:31;1.88;;;0.77;;
25319;SDS011;13256;49.012;8.610;2023-07-20T15:23:59;1.00;;;0.80;;
25319;SDS011;13256;49.012;8.610;2023-07-20T15:26:26;1.35;;;0.60;;
25319;SDS011;13256;49.012;8.610;2023-07-20T15:28:55;2.50;;;0.95;;
25319;SDS011;13256;49.012;8.610;2023-07-20T15:31:22;4.20;;;0.88;;
25319;SDS011;13256;49.012;8.610;2023-07-20T15:34:10;0.80;;;0.60;;
25319;SDS011;13256;49.012;8.610;2023-07-20T15:36:40;1.65;;;0.90;;
25319;SDS011;13256;49.012;8.610;2023-07-20T15:39:15;1.30;;;0.73;;
25319;SDS011;13256;49.012;8.610;2023-07-20T15:41:42;1.90;;;0.90;;
25319;SDS011;13256;49.012;8.610;2023-07-20T15:44:08;3.28;;;0.90;;
25319;SDS011;13256;49.012;8.610;2023-07-20T15:49:06;1.48;;;0.60;;
25319;SDS011;13256;49.012;8.610;2023-07-20T15:51:36;1.98;;;1.02;;
25319;SDS011;13256;49.012;8.610;2023-07-20T15:54:09;1.23;;;0.70;;
25319;SDS011;13256;49.012;8.610;2023-07-20T15:56:42;1.17;;;0.60;;
25319;SDS011;13256;49.012;8.610;2023-07-20T15:59:11;3.17;;;1.10;;
25319;SDS011;13256;49.012;8.610;2023-07-20T16:01:39;1.88;;;0.68;;
25319;SDS011;13256;49.012;8.610;2023-07-20T16:04:09;2.92;;;1.08;;
25319;SDS011;13256;49.012;8.610;2023-07-20T16:06:37;0.90;;;0.60;;
25319;SDS011;13256;49.012;8.610;2023-07-20T16:09:18;1.05;;;0.80;;
25319;SDS011;13256;49.012;8.610;2023-07-20T16:11:46;1.52;;;0.90;;
25319;SDS011;13256;49.012;8.610;2023-07-20T16:14:14;1.27;;;0.93;;
25319;SDS011;13256;49.012;8.610;2023-07-20T16:16:45;1.20;;;0.90;;
25319;SDS011;13256;49.012;8.610;2023-07-20T16:19:18;1.33;;;0.93;;
25319;SDS011;13256;49.012;8.610;2023-07-20T16:21:45;2.92;;;0.90;;
25319;SDS011;13256;49.012;8.610;2023-07-20T16:24:14;1.42;;;0.85;;
25319;SDS011;13256;49.012;8.610;2023-07-20T16:27:09;1.95;;;0.73;;
25319;SDS011;13256;49.012;8.610;2023-07-20T16:29:40;3.78;;;0.88;;
25319;SDS011;13256;49.012;8.610;2023-07-20T16:32:09;2.47;;;0.60;;
25319;SDS011;13256;49.012;8.610;2023-07-20T16:34:47;2.03;;;0.93;;
25319;SDS011;13256;49.012;8.610;2023-07-20T16:37:15;3.28;;;0.68;;
25319;SDS011;13256;49.012;8.610;2023-07-20T16:42:53;2.15;;;0.75;;
25319;SDS011;13256;49.012;8.610;2023-07-20T16:45:25;1.80;;;1.00;;
25319;SDS011;13256;49.012;8.610;2023-07-20T16:47:59;1.17;;;0.95;;
25319;SDS011;13256;49.012;8.610;2023-07-20T17:00:16;1.50;;;0.80;;
25319;SDS011;13256;49.012;8.610;2023-07-20T17:06:09;7.05;;;1.15;;
25319;SDS011;13256;49.012;8.610;2023-07-20T17:08:45;2.75;;;0.85;;
25319;SDS011;13256;49.012;8.610;2023-07-20T17:17:50;1.02;;;0.90;;
25319;SDS011;13256;49.012;8.610;2023-07-20T17:23:51;1.48;;;0.80;;
25319;SDS011;13256;49.012;8.610;2023-07-20T17:26:24;1.38;;;0.80;;
25319;SDS011;13256;49.012;8.610;2023-07-20T17:31:51;0.80;;;0.70;;
25319;SDS011;13256;49.012;8.610;2023-07-20T17:34:20;3.00;;;0.98;;
25319;SDS011;13256;49.012;8.610;2023-07-20T17:36:50;3.17;;;0.90;;
25319;SDS011;13256;49.012;8.610;2023-07-20T17:39:46;2.10;;;0.90;;
25319;SDS011;13256;49.012;8.610;2023-07-20T17:42:15;1.02;;;0.80;;
25319;SDS011;13256;49.012;8.610;2023-07-20T17:44:47;1.42;;;1.00;;
25319;SDS011;13256;49.012;8.610;2023-07-20T17:47:14;3.67;;;0.98;;
25319;SDS011;13256;49.012;8.610;2023-07-20T17:49:47;1.75;;;1.00;;
25319;SDS011;13256;49.012;8.610;2023-07-20T17:52:19;3.25;;;0.90;;
25319;SDS011;13256;49.012;8.610;2023-07-20T17:54:54;3.07;;;1.20;;
25319;SDS011;13256;49.012;8.610;2023-07-20T17:57:21;4.05;;;1.10;;
25319;SDS011;13256;49.012;8.610;2023-07-20T17:59:48;2.72;;;1.00;;
25319;SDS011;13256;49.012;8.610;2023-07-20T18:02:44;1.25;;;1.15;;
25319;SDS011;13256;49.012;8.610;2023-07-20T18:05:11;3.85;;;0.80;;
25319;SDS011;13256;49.012;8.610;2023-07-20T18:07:40;2.08;;;0.98;;
25319;SDS011;13256;49.012;8.610;2023-07-20T18:10:13;1.10;;;0.80;;
25319;SDS011;13256;49.012;8.610;2023-07-20T18:12:41;6.28;;;1.17;;
25319;SDS011;13256;49.012;8.610;2023-07-20T18:15:15;3.13;;;0.95;;
25319;SDS011;13256;49.012;8.610;2023-07-20T18:17:43;4.57;;;1.10;;
25319;SDS011;13256;49.012;8.610;2023-07-20T18:20:13;2.47;;;1.00;;
25319;SDS011;13256;49.012;8.610;2023-07-20T18:23:01;1.70;;;0.98;;
25319;SDS011;13256;49.012;8.610;2023-07-20T18:25:34;3.38;;;0.88;;
25319;SDS011;13256;49.012;8.610;2023-07-20T18:28:04;6.13;;;1.10;;
25319;SDS011;13256;49.012;8.610;2023-07-20T18:30:34;2.13;;;0.90;;
25319;SDS011;13256;49.012;8.610;2023-07-20T18:33:01;2.42;;;0.80;;
25319;SDS011;13256;49.012;8.610;2023-07-20T18:35:31;2.05;;;1.25;;
25319;SDS011;13256;49.012;8.610;2023-07-20T18:38:00;5.43;;;0.75;;
25319;SDS011;13256;49.012;8.610;2023-07-20T18:40:28;2.65;;;1.00;;
25319;SDS011;13256;49.012;8.610;2023-07-20T18:43:08;3.15;;;1.08;;
25319;SDS011;13256;49.012;8.610;2023-07-20T18:45:35;3.28;;;1.05;;
25319;SDS011;13256;49.012;8.610;2023-07-20T18:48:03;1.58;;;1.02;;
25319;SDS011;13256;49.012;8.610;2023-07-20T18:50:47;2.30;;;1.10;;
25319;SDS011;13256;49.012;8.610;2023-07-20T18:53:14;1.05;;;0.73;;